Mogadishu, Somalia
Current Conditions -  °F | °C
As of 6:55 PM on Saturday 22 Nov 2014 (Local Time) from KQVF Reporting Station
Clear Clear  
Wind Chill: 82°   Ceiling: Unl
Heat Index: 87°   Visibility: 6mi
Dew Point: 74°   Wind: 1mph
Humidity: 77%   Direction: 160°SSE
Pressure: 29.92"   Gusts: NA
Location:  2.05°N, 45.33°E
Report Text: KQVF 221555Z AUTO 16001KT 9999 CLR 28/23 A2992 RMK AO2 SLP131 T02760233
Loading
Personal Weather Stations






























Interactive Weather Map New forecast layout! Learn more

10-Day Weather Forecast

Advertisements
Track Severe Weather on mobile